Página principal
METAR-TAF:

METAR-TAF

Aeroportos :

Lawton, Oklahoma, Estados Unidos

latitude: 34-33-27N, longitude: 098-25-00W, altura: 338 m

Observação actual do tempo

O boletim foi feito há 20 minutos, às 16:53 UTC
Vento 7 kt de norte
Temperatura 14°C
Humidade 63%
Pressão 1027 hPa
Visibilidade: 16.1 km
Céu limpo

METAR: KLAW 201653Z 01007KT 10SM CLR 14/07 A3032 RMK AO2 SLP266 T01390067

Hora: 12:13 (17:13 UTC)

Previsão

O boletim foi feito há 5 horas e 53 minutos, às 11:20 UTC
Previsão válida de 20 às 12 UTC a 21 às 12 UTC
Vento 10 kt de norte
Visibilidade: 10 km
Encobertoa uma altura de 8000 ft
Temporariamente
de 20 às 12 UTC a 20 às 14 UTC
aguaceiros fracos de chuva
A partir de 20 às 1700 UTC
Vento 7 kt de nor-noroeste
Visibilidade: 10 km
Nuvens dispersasa uma altura de 5000 ft
A partir de 21 às 0000 UTC
Vento 4 kt com direcção variável
Visibilidade: 10 km
Céu limpo

TAF: KLAW 201120Z 2012/2112 36010KT P6SM OVC080 TEMPO 2012/2014 -SHRA FM201700 34007KT P6SM SCT050 FM210000 VRB04KT P6SM SKC

Observações e previsões do tempo de mais de 4000 aeroportos (mensagens METAR e TAF).

As estações disponíveis são os pontos amarelos e vermelhos sobre o mapa.

Mova o rato sobre o mapa para ver o nome da estação.

Depois clique no ponto para visualizar as observações e previsões meteorológicas.

Para alterar o mapa : clique nos botões verdes com uma cruz preta para aumentar o zoom; no botão verde com uma pitada de zoom; ou nas setas verdes para mapas adjacentes.


METAR-TAF: